sensor_id;sensor_type;location;lat;lon;timestamp;pressure;altitude;pressure_sealevel;temperature;humidity
63927;BME280;50103;47.960;21.712;2022-12-18T06:02:50;102238.40;;;-2.33;100.00
63927;BME280;50103;47.960;21.712;2022-12-18T06:05:15;102245.48;;;-2.35;100.00
63927;BME280;50103;47.960;21.712;2022-12-18T06:07:41;102243.55;;;-2.40;100.00
63927;BME280;50103;47.960;21.712;2022-12-18T06:10:06;102248.90;;;-2.42;100.00
63927;BME280;50103;47.960;21.712;2022-12-18T06:12:32;102254.63;;;-2.45;100.00
63927;BME280;50103;47.960;21.712;2022-12-18T06:14:59;102258.59;;;-2.48;100.00
63927;BME280;50103;47.960;21.712;2022-12-18T06:17:29;102265.51;;;-2.49;100.00
63927;BME280;50103;47.960;21.712;2022-12-18T06:19:55;102265.13;;;-2.53;100.00
63927;BME280;50103;47.960;21.712;2022-12-18T06:22:20;102268.58;;;-2.54;100.00
63927;BME280;50103;47.960;21.712;2022-12-18T06:24:46;102275.33;;;-2.56;100.00
63927;BME280;50103;47.960;21.712;2022-12-18T06:27:11;102274.63;;;-2.57;100.00
63927;BME280;50103;47.960;21.712;2022-12-18T06:29:37;102276.17;;;-2.59;100.00
63927;BME280;50103;47.960;21.712;2022-12-18T06:32:02;102280.85;;;-2.59;100.00
63927;BME280;50103;47.960;21.712;2022-12-18T06:34:28;102287.44;;;-2.60;100.00
63927;BME280;50103;47.960;21.712;2022-12-18T06:36:57;102291.60;;;-2.61;100.00
63927;BME280;50103;47.960;21.712;2022-12-18T06:39:23;102295.77;;;-2.61;100.00
63927;BME280;50103;47.960;21.712;2022-12-18T06:41:49;102298.02;;;-2.62;100.00
63927;BME280;50103;47.960;21.712;2022-12-18T06:44:14;102296.79;;;-2.62;100.00
63927;BME280;50103;47.960;21.712;2022-12-18T06:46:39;102296.08;;;-2.64;100.00
63927;BME280;50103;47.960;21.712;2022-12-18T06:49:05;102298.48;;;-2.66;100.00
63927;BME280;50103;47.960;21.712;2022-12-18T06:51:30;102301.93;;;-2.68;100.00
63927;BME280;50103;47.960;21.712;2022-12-18T06:53:56;102304.16;;;-2.69;100.00
63927;BME280;50103;47.960;21.712;2022-12-18T06:56:21;102310.05;;;-2.70;100.00
63927;BME280;50103;47.960;21.712;2022-12-18T06:58:47;102310.58;;;-2.71;100.00
63927;BME280;50103;47.960;21.712;2022-12-18T07:01:15;102316.80;;;-2.72;100.00
63927;BME280;50103;47.960;21.712;2022-12-18T07:03:41;102322.52;;;-2.72;100.00
63927;BME280;50103;47.960;21.712;2022-12-18T07:06:17;102328.74;;;-2.73;100.00
63927;BME280;50103;47.960;21.712;2022-12-18T07:08:44;102334.11;;;-2.74;100.00
63927;BME280;50103;47.960;21.712;2022-12-18T07:11:09;102342.45;;;-2.72;100.00
63927;BME280;50103;47.960;21.712;2022-12-18T07:13:35;102348.55;;;-2.69;100.00
63927;BME280;50103;47.960;21.712;2022-12-18T07:16:09;102350.14;;;-2.67;100.00
63927;BME280;50103;47.960;21.712;2022-12-18T07:18:35;102351.39;;;-2.64;100.00
63927;BME280;50103;47.960;21.712;2022-12-18T07:21:05;102352.27;;;-2.63;100.00
63927;BME280;50103;47.960;21.712;2022-12-18T07:23:33;102354.02;;;-2.61;100.00
63927;BME280;50103;47.960;21.712;2022-12-18T07:26:11;102367.55;;;-2.61;100.00
63927;BME280;50103;47.960;21.712;2022-12-18T07:28:38;102373.11;;;-2.60;100.00
63927;BME280;50103;47.960;21.712;2022-12-18T07:31:15;102373.09;;;-2.59;100.00
63927;BME280;50103;47.960;21.712;2022-12-18T07:33:42;102380.39;;;-2.59;100.00
63927;BME280;50103;47.960;21.712;2022-12-18T07:36:09;102380.21;;;-2.60;100.00
63927;BME280;50103;47.960;21.712;2022-12-18T07:38:35;102376.39;;;-2.61;100.00
63927;BME280;50103;47.960;21.712;2022-12-18T07:41:06;102382.80;;;-2.62;100.00
63927;BME280;50103;47.960;21.712;2022-12-18T07:43:33;102386.10;;;-2.62;100.00
63927;BME280;50103;47.960;21.712;2022-12-18T07:45:59;102394.25;;;-2.62;100.00
63927;BME280;50103;47.960;21.712;2022-12-18T07:48:25;102399.98;;;-2.62;100.00
63927;BME280;50103;47.960;21.712;2022-12-18T07:50:50;102403.44;;;-2.61;100.00
63927;BME280;50103;47.960;21.712;2022-12-18T07:53:16;102402.92;;;-2.61;100.00
63927;BME280;50103;47.960;21.712;2022-12-18T07:55:42;102404.67;;;-2.60;100.00
63927;BME280;50103;47.960;21.712;2022-12-18T07:58:07;102407.44;;;-2.59;100.00
63927;BME280;50103;47.960;21.712;2022-12-18T08:00:34;102412.15;;;-2.56;100.00
63927;BME280;50103;47.960;21.712;2022-12-18T08:02:59;102413.21;;;-2.55;100.00
63927;BME280;50103;47.960;21.712;2022-12-18T08:05:26;102411.67;;;-2.52;100.00
63927;BME280;50103;47.960;21.712;2022-12-18T08:07:52;102416.91;;;-2.50;100.00
63927;BME280;50103;47.960;21.712;2022-12-18T08:10:18;102423.53;;;-2.47;100.00
63927;BME280;50103;47.960;21.712;2022-12-18T08:12:43;102424.77;;;-2.45;100.00
63927;BME280;50103;47.960;21.712;2022-12-18T08:15:09;102422.17;;;-2.44;100.00
63927;BME280;50103;47.960;21.712;2022-12-18T08:17:35;102425.30;;;-2.44;100.00
63927;BME280;50103;47.960;21.712;2022-12-18T08:20:00;102427.73;;;-2.43;100.00
63927;BME280;50103;47.960;21.712;2022-12-18T08:22:26;102425.47;;;-2.42;100.00
63927;BME280;50103;47.960;21.712;2022-12-18T08:24:51;102427.55;;;-2.42;100.00
63927;BME280;50103;47.960;21.712;2022-12-18T08:27:17;102431.56;;;-2.40;100.00
63927;BME280;50103;47.960;21.712;2022-12-18T08:29:42;102432.81;;;-2.38;100.00
63927;BME280;50103;47.960;21.712;2022-12-18T08:32:08;102439.95;;;-2.35;99.98
63927;BME280;50103;47.960;21.712;2022-12-18T08:34:33;102442.56;;;-2.35;99.96
63927;BME280;50103;47.960;21.712;2022-12-18T08:36:59;102447.95;;;-2.34;99.78
63927;BME280;50103;47.960;21.712;2022-12-18T08:39:24;102453.34;;;-2.33;99.65
63927;BME280;50103;47.960;21.712;2022-12-18T08:41:50;102457.17;;;-2.32;100.00
63927;BME280;50103;47.960;21.712;2022-12-18T08:44:34;102460.16;;;-2.27;100.00
63927;BME280;50103;47.960;21.712;2022-12-18T08:47:03;102459.30;;;-2.26;99.02
63927;BME280;50103;47.960;21.712;2022-12-18T08:49:29;102464.01;;;-2.23;99.11
63927;BME280;50103;47.960;21.712;2022-12-18T08:51:55;102461.58;;;-2.23;99.30
63927;BME280;50103;47.960;21.712;2022-12-18T08:54:23;102465.08;;;-2.21;99.56
63927;BME280;50103;47.960;21.712;2022-12-18T08:56:48;102462.86;;;-2.18;99.43
63927;BME280;50103;47.960;21.712;2022-12-18T08:59:16;102463.77;;;-2.14;98.88
63927;BME280;50103;47.960;21.712;2022-12-18T09:01:41;102461.52;;;-2.13;98.49
63927;BME280;50103;47.960;21.712;2022-12-18T09:04:08;102464.66;;;-2.11;99.10
63927;BME280;50103;47.960;21.712;2022-12-18T09:06:37;102468.50;;;-2.07;99.34
63927;BME280;50103;47.960;21.712;2022-12-18T09:09:04;102469.93;;;-2.04;99.39
63927;BME280;50103;47.960;21.712;2022-12-18T09:11:30;102471.71;;;-2.00;99.10
63927;BME280;50103;47.960;21.712;2022-12-18T09:13:57;102466.88;;;-1.97;99.02
63927;BME280;50103;47.960;21.712;2022-12-18T09:16:25;102472.27;;;-1.96;98.84
63927;BME280;50103;47.960;21.712;2022-12-18T09:18:51;102473.48;;;-1.93;98.59
63927;BME280;50103;47.960;21.712;2022-12-18T09:21:19;102472.81;;;-1.92;98.15
63927;BME280;50103;47.960;21.712;2022-12-18T09:23:49;102474.39;;;-1.90;98.38
63927;BME280;50103;47.960;21.712;2022-12-18T09:26:15;102478.23;;;-1.88;98.29
63927;BME280;50103;47.960;21.712;2022-12-18T09:28:41;102483.13;;;-1.85;98.75
63927;BME280;50103;47.960;21.712;2022-12-18T09:31:08;102487.00;;;-1.81;97.74
63927;BME280;50103;47.960;21.712;2022-12-18T09:33:37;102482.66;;;-1.78;97.56
63927;BME280;50103;47.960;21.712;2022-12-18T09:36:06;102484.25;;;-1.75;98.13
63927;BME280;50103;47.960;21.712;2022-12-18T09:38:33;102481.85;;;-1.71;98.31
63927;BME280;50103;47.960;21.712;2022-12-18T09:41:26;102485.55;;;-1.66;98.76
63927;BME280;50103;47.960;21.712;2022-12-18T09:44:01;102485.40;;;-1.62;97.67
63927;BME280;50103;47.960;21.712;2022-12-18T09:46:32;102488.02;;;-1.59;97.71
63927;BME280;50103;47.960;21.712;2022-12-18T09:49:02;102489.45;;;-1.55;97.79
63927;BME280;50103;47.960;21.712;2022-12-18T09:51:35;102489.14;;;-1.51;97.69
63927;BME280;50103;47.960;21.712;2022-12-18T09:54:11;102486.91;;;-1.48;97.24
63927;BME280;50103;47.960;21.712;2022-12-18T09:56:41;102489.34;;;-1.46;96.89
63927;BME280;50103;47.960;21.712;2022-12-18T09:59:20;102495.61;;;-1.43;96.16
63927;BME280;50103;47.960;21.712;2022-12-18T10:01:46;102497.04;;;-1.40;96.36
63927;BME280;50103;47.960;21.712;2022-12-18T10:04:12;102501.25;;;-1.36;97.08
63927;BME280;50103;47.960;21.712;2022-12-18T10:06:46;102500.92;;;-1.32;96.89
63927;BME280;50103;47.960;21.712;2022-12-18T10:09:31;102496.60;;;-1.26;97.21
63927;BME280;50103;47.960;21.712;2022-12-18T10:12:32;102489.89;;;-1.19;96.92
63927;BME280;50103;47.960;21.712;2022-12-18T10:15:14;102486.61;;;-1.13;96.95
63927;BME280;50103;47.960;21.712;2022-12-18T10:20:36;102484.27;;;-0.99;96.94
63927;BME280;50103;47.960;21.712;2022-12-18T10:23:30;102483.09;;;-0.90;96.84
63927;BME280;50103;47.960;21.712;2022-12-18T10:28:34;102479.90;;;-0.65;96.37
63927;BME280;50103;47.960;21.712;2022-12-18T10:31:22;102478.55;;;-0.51;96.87
63927;BME280;50103;47.960;21.712;2022-12-18T10:33:48;102482.27;;;-0.34;96.21
63927;BME280;50103;47.960;21.712;2022-12-18T10:36:14;102481.77;;;-0.20;96.03
63927;BME280;50103;47.960;21.712;2022-12-18T10:38:40;102486.67;;;-0.06;95.99
63927;BME280;50103;47.960;21.712;2022-12-18T10:43:48;102475.91;;;0.15;95.24
63927;BME280;50103;47.960;21.712;2022-12-18T10:46:16;102474.51;;;0.23;94.57
63927;BME280;50103;47.960;21.712;2022-12-18T10:51:39;102476.44;;;0.44;92.48
63927;BME280;50103;47.960;21.712;2022-12-18T10:54:21;102477.29;;;0.55;93.64
63927;BME280;50103;47.960;21.712;2022-12-18T10:56:47;102480.58;;;0.69;92.31
63927;BME280;50103;47.960;21.712;2022-12-18T10:59:16;102481.27;;;0.76;91.76
63927;BME280;50103;47.960;21.712;2022-12-18T11:01:52;102483.69;;;0.88;92.13
63927;BME280;50103;47.960;21.712;2022-12-18T11:04:32;102481.38;;;1.05;92.51
63927;BME280;50103;47.960;21.712;2022-12-18T11:07:04;102480.10;;;1.20;91.04
63927;BME280;50103;47.960;21.712;2022-12-18T11:09:32;102481.83;;;1.28;89.24
63927;BME280;50103;47.960;21.712;2022-12-18T11:12:00;102481.25;;;1.40;90.28
63927;BME280;50103;47.960;21.712;2022-12-18T11:14:41;102480.84;;;1.51;88.81
63927;BME280;50103;47.960;21.712;2022-12-18T11:17:19;102477.15;;;1.58;88.46
63927;BME280;50103;47.960;21.712;2022-12-18T11:19:52;102477.48;;;1.62;87.42
63927;BME280;50103;47.960;21.712;2022-12-18T11:22:23;102480.04;;;1.73;87.27
63927;BME280;50103;47.960;21.712;2022-12-18T11:27:40;102482.45;;;1.78;86.42
63927;BME280;50103;47.960;21.712;2022-12-18T11:30:13;102483.79;;;1.88;85.80
63927;BME280;50103;47.960;21.712;2022-12-18T11:33:16;102480.56;;;1.97;84.67
63927;BME280;50103;47.960;21.712;2022-12-18T11:35:55;102475.30;;;2.03;84.90
63927;BME280;50103;47.960;21.712;2022-12-18T11:38:27;102472.08;;;2.12;85.76
63927;BME280;50103;47.960;21.712;2022-12-18T11:41:01;102475.62;;;2.30;86.58
63927;BME280;50103;47.960;21.712;2022-12-18T11:44:01;102473.59;;;2.43;83.62
63927;BME280;50103;47.960;21.712;2022-12-18T11:46:36;102472.64;;;2.50;83.08
63927;BME280;50103;47.960;21.712;2022-12-18T11:49:24;102474.21;;;2.50;82.70
63927;BME280;50103;47.960;21.712;2022-12-18T11:51:58;102473.97;;;2.59;84.44
63927;BME280;50103;47.960;21.712;2022-12-18T11:54:26;102473.17;;;2.69;83.99
63927;BME280;50103;47.960;21.712;2022-12-18T11:57:15;102471.02;;;2.75;83.58
63927;BME280;50103;47.960;21.712;2022-12-18T12:00:07;102471.10;;;2.83;81.74
63927;BME280;50103;47.960;21.712;2022-12-18T12:05:42;102467.78;;;2.64;79.75
63927;BME280;50103;47.960;21.712;2022-12-18T12:16:51;102458.65;;;3.03;81.17
63927;BME280;50103;47.960;21.712;2022-12-18T12:19:39;102458.80;;;3.19;81.69
63927;BME280;50103;47.960;21.712;2022-12-18T12:33:54;102456.64;;;3.99;79.73
63927;BME280;50103;47.960;21.712;2022-12-18T12:39:13;102459.81;;;3.98;79.07
63927;BME280;50103;47.960;21.712;2022-12-18T12:41:41;102461.40;;;3.97;79.29
63927;BME280;50103;47.960;21.712;2022-12-18T12:44:39;102459.52;;;4.05;80.20
63927;BME280;50103;47.960;21.712;2022-12-18T12:47:18;102460.67;;;4.10;79.70
63927;BME280;50103;47.960;21.712;2022-12-18T12:49:46;102461.70;;;4.11;77.39
63927;BME280;50103;47.960;21.712;2022-12-18T12:52:15;102459.55;;;4.24;80.26
63927;BME280;50103;47.960;21.712;2022-12-18T12:54:43;102465.14;;;4.26;78.95
63927;BME280;50103;47.960;21.712;2022-12-18T12:57:22;102470.73;;;4.28;78.62
63927;BME280;50103;47.960;21.712;2022-12-18T13:00:35;102475.96;;;4.30;79.36
63927;BME280;50103;47.960;21.712;2022-12-18T13:03:06;102477.27;;;4.24;78.99
63927;BME280;50103;47.960;21.712;2022-12-18T13:05:45;102475.52;;;4.13;79.51
63927;BME280;50103;47.960;21.712;2022-12-18T13:08:29;102478.71;;;4.00;80.87
63927;BME280;50103;47.960;21.712;2022-12-18T13:10:57;102482.04;;;3.76;81.73
63927;BME280;50103;47.960;21.712;2022-12-18T13:13:54;102483.66;;;3.60;82.70
63927;BME280;50103;47.960;21.712;2022-12-18T13:16:25;102493.04;;;3.39;81.49
63927;BME280;50103;47.960;21.712;2022-12-18T13:18:56;102494.88;;;3.16;82.20
63927;BME280;50103;47.960;21.712;2022-12-18T13:21:32;102498.06;;;2.98;81.55
63927;BME280;50103;47.960;21.712;2022-12-18T13:24:25;102502.60;;;2.82;82.28
63927;BME280;50103;47.960;21.712;2022-12-18T13:26:51;102509.52;;;2.71;83.49
63927;BME280;50103;47.960;21.712;2022-12-18T13:29:43;102512.07;;;2.60;83.30
63927;BME280;50103;47.960;21.712;2022-12-18T13:32:23;102515.20;;;2.42;83.23
63927;BME280;50103;47.960;21.712;2022-12-18T13:37:55;102517.69;;;2.12;83.98
63927;BME280;50103;47.960;21.712;2022-12-18T13:43:33;102529.30;;;2.01;84.22
63927;BME280;50103;47.960;21.712;2022-12-18T13:48:28;102534.09;;;1.90;84.47
63927;BME280;50103;47.960;21.712;2022-12-18T13:51:01;102535.16;;;1.83;84.74
63927;BME280;50103;47.960;21.712;2022-12-18T13:53:43;102532.77;;;1.75;84.43
63927;BME280;50103;47.960;21.712;2022-12-18T13:56:15;102545.54;;;1.66;84.34
63927;BME280;50103;47.960;21.712;2022-12-18T13:58:44;102551.52;;;1.61;84.47
63927;BME280;50103;47.960;21.712;2022-12-18T14:01:22;102553.63;;;1.56;84.66
63927;BME280;50103;47.960;21.712;2022-12-18T14:03:49;102562.19;;;1.51;85.09
63927;BME280;50103;47.960;21.712;2022-12-18T14:06:17;102568.50;;;1.48;84.97
63927;BME280;50103;47.960;21.712;2022-12-18T14:08:42;102569.04;;;1.40;85.11
63927;BME280;50103;47.960;21.712;2022-12-18T14:11:20;102574.64;;;1.36;85.65
63927;BME280;50103;47.960;21.712;2022-12-18T14:13:47;102582.14;;;1.34;85.71
63927;BME280;50103;47.960;21.712;2022-12-18T14:16:15;102587.56;;;1.33;86.22
63927;BME280;50103;47.960;21.712;2022-12-18T14:18:45;102594.21;;;1.27;86.06
63927;BME280;50103;47.960;21.712;2022-12-18T14:21:21;102595.61;;;1.22;86.17
63927;BME280;50103;47.960;21.712;2022-12-18T14:24:02;102603.11;;;1.21;86.11
63927;BME280;50103;47.960;21.712;2022-12-18T14:26:30;102606.25;;;1.18;86.68
63927;BME280;50103;47.960;21.712;2022-12-18T14:29:01;102608.20;;;1.12;86.34
63927;BME280;50103;47.960;21.712;2022-12-18T14:31:40;102612.38;;;1.05;85.84
63927;BME280;50103;47.960;21.712;2022-12-18T14:34:15;102613.27;;;0.95;85.90
63927;BME280;50103;47.960;21.712;2022-12-18T14:36:41;102613.09;;;0.89;86.16
63927;BME280;50103;47.960;21.712;2022-12-18T14:39:17;102612.20;;;0.86;86.47
63927;BME280;50103;47.960;21.712;2022-12-18T14:41:43;102609.23;;;0.84;86.85
63927;BME280;50103;47.960;21.712;2022-12-18T14:44:12;102607.15;;;0.83;87.29
63927;BME280;50103;47.960;21.712;2022-12-18T14:47:12;102603.84;;;0.82;87.59
63927;BME280;50103;47.960;21.712;2022-12-18T14:49:41;102604.03;;;0.81;87.56
63927;BME280;50103;47.960;21.712;2022-12-18T14:52:27;102604.73;;;0.81;87.99
63927;BME280;50103;47.960;21.712;2022-12-18T14:54:56;102607.69;;;0.81;88.13
63927;BME280;50103;47.960;21.712;2022-12-18T14:57:24;102611.52;;;0.81;88.33
63927;BME280;50103;47.960;21.712;2022-12-18T14:59:50;102612.40;;;0.77;87.69
63927;BME280;50103;47.960;21.712;2022-12-18T15:02:27;102611.52;;;0.70;87.60
63927;BME280;50103;47.960;21.712;2022-12-18T15:05:02;102614.30;;;0.66;88.08
63927;BME280;50103;47.960;21.712;2022-12-18T15:07:43;102614.48;;;0.58;87.37
63927;BME280;50103;47.960;21.712;2022-12-18T15:10:17;102612.89;;;0.52;87.52
63927;BME280;50103;47.960;21.712;2022-12-18T15:13:07;102612.54;;;0.44;87.72
63927;BME280;50103;47.960;21.712;2022-12-18T15:26:02;102631.64;;;0.21;89.13
63927;BME280;50103;47.960;21.712;2022-12-18T15:28:45;102636.33;;;0.19;89.57
63927;BME280;50103;47.960;21.712;2022-12-18T15:34:29;102636.85;;;0.12;89.44
63927;BME280;50103;47.960;21.712;2022-12-18T15:36:29;102639.95;;;0.06;89.58
63927;BME280;50103;47.960;21.712;2022-12-18T15:38:56;102644.47;;;0.03;89.97
63927;BME280;50103;47.960;21.712;2022-12-18T15:41:23;102643.77;;;-0.00;89.90
63927;BME280;50103;47.960;21.712;2022-12-18T15:43:50;102644.27;;;-0.05;90.09
63927;BME280;50103;47.960;21.712;2022-12-18T15:46:21;102648.45;;;-0.06;90.28
63927;BME280;50103;47.960;21.712;2022-12-18T15:48:49;102649.64;;;-0.10;89.96
63927;BME280;50103;47.960;21.712;2022-12-18T15:53:58;102653.64;;;-0.18;90.55
63927;BME280;50103;47.960;21.712;2022-12-18T15:56:24;102662.98;;;-0.25;89.64
63927;BME280;50103;47.960;21.712;2022-12-18T15:59:14;102663.46;;;-0.29;90.16
63927;BME280;50103;47.960;21.712;2022-12-18T16:01:41;102664.50;;;-0.33;89.75
63927;BME280;50103;47.960;21.712;2022-12-18T16:04:10;102678.41;;;-0.37;90.05
63927;BME280;50103;47.960;21.712;2022-12-18T16:06:37;102680.80;;;-0.43;90.05
63927;BME280;50103;47.960;21.712;2022-12-18T16:09:02;102684.27;;;-0.44;90.66
63927;BME280;50103;47.960;21.712;2022-12-18T16:11:29;102684.95;;;-0.45;90.93
63927;BME280;50103;47.960;21.712;2022-12-18T16:14:35;102686.86;;;-0.47;90.58
63927;BME280;50103;47.960;21.712;2022-12-18T16:17:03;102683.89;;;-0.51;90.75
63927;BME280;50103;47.960;21.712;2022-12-18T16:19:29;102681.08;;;-0.54;90.95
63927;BME280;50103;47.960;21.712;2022-12-18T16:21:56;102682.27;;;-0.57;90.82
63927;BME280;50103;47.960;21.712;2022-12-18T16:24:24;102684.52;;;-0.60;90.91
63927;BME280;50103;47.960;21.712;2022-12-18T16:26:51;102687.80;;;-0.63;90.79
63927;BME280;50103;47.960;21.712;2022-12-18T16:29:18;102687.80;;;-0.66;91.05
63927;BME280;50103;47.960;21.712;2022-12-18T16:31:44;102682.39;;;-0.67;91.14
63927;BME280;50103;47.960;21.712;2022-12-18T16:34:23;102677.17;;;-0.67;91.41
63927;BME280;50103;47.960;21.712;2022-12-18T16:36:55;102678.89;;;-0.69;91.30
63927;BME280;50103;47.960;21.712;2022-12-18T16:39:21;102688.95;;;-0.73;91.57
63927;BME280;50103;47.960;21.712;2022-12-18T16:41:47;102692.20;;;-0.78;90.75
63927;BME280;50103;47.960;21.712;2022-12-18T16:44:13;102694.45;;;-0.81;91.38
63927;BME280;50103;47.960;21.712;2022-12-18T16:46:39;102691.98;;;-0.85;90.18
63927;BME280;50103;47.960;21.712;2022-12-18T16:49:08;102699.27;;;-0.87;91.19
63927;BME280;50103;47.960;21.712;2022-12-18T16:51:35;102707.95;;;-0.89;91.49
63927;BME280;50103;47.960;21.712;2022-12-18T16:54:01;102714.38;;;-0.89;91.67
63927;BME280;50103;47.960;21.712;2022-12-18T16:56:26;102717.50;;;-0.90;92.13
63927;BME280;50103;47.960;21.712;2022-12-18T16:58:53;102721.50;;;-0.90;92.16
63927;BME280;50103;47.960;21.712;2022-12-18T17:01:20;102729.48;;;-0.92;92.03
63927;BME280;50103;47.960;21.712;2022-12-18T17:03:53;102735.02;;;-0.93;91.99
63927;BME280;50103;47.960;21.712;2022-12-18T17:06:20;102732.74;;;-0.96;92.08
63927;BME280;50103;47.960;21.712;2022-12-18T17:08:47;102736.91;;;-0.95;92.28
63927;BME280;50103;47.960;21.712;2022-12-18T17:11:13;102735.36;;;-0.95;92.56
63927;BME280;50103;47.960;21.712;2022-12-18T17:13:39;102738.16;;;-0.92;92.70
63927;BME280;50103;47.960;21.712;2022-12-18T17:16:05;102739.39;;;-0.93;92.84
63927;BME280;50103;47.960;21.712;2022-12-18T17:18:32;102743.57;;;-0.92;92.92
63927;BME280;50103;47.960;21.712;2022-12-18T17:20:59;102748.62;;;-0.91;92.79
63927;BME280;50103;47.960;21.712;2022-12-18T17:23:26;102739.58;;;-0.91;92.86
63927;BME280;50103;47.960;21.712;2022-12-18T17:25:58;102741.14;;;-0.91;92.93
63927;BME280;50103;47.960;21.712;2022-12-18T17:28:25;102746.52;;;-0.92;92.82
63927;BME280;50103;47.960;21.712;2022-12-18T17:30:54;102745.83;;;-0.92;93.04
63927;BME280;50103;47.960;21.712;2022-12-18T17:33:21;102749.14;;;-0.91;93.14
63927;BME280;50103;47.960;21.712;2022-12-18T17:35:48;102750.15;;;-0.94;92.98
63927;BME280;50103;47.960;21.712;2022-12-18T17:38:14;102748.58;;;-0.94;93.26
63927;BME280;50103;47.960;21.712;2022-12-18T17:40:40;102753.27;;;-0.95;93.13
63927;BME280;50103;47.960;21.712;2022-12-18T17:43:06;102752.71;;;-0.99;91.80
63927;BME280;50103;47.960;21.712;2022-12-18T17:45:36;102758.23;;;-1.04;92.55
63927;BME280;50103;47.960;21.712;2022-12-18T17:48:06;102762.02;;;-1.08;92.13
63927;BME280;50103;47.960;21.712;2022-12-18T17:50:33;102772.59;;;-1.10;92.46
63927;BME280;50103;47.960;21.712;2022-12-18T17:52:59;102777.45;;;-1.12;92.39
63927;BME280;50103;47.960;21.712;2022-12-18T17:55:25;102776.91;;;-1.13;92.44
63927;BME280;50103;47.960;21.712;2022-12-18T17:57:52;102776.20;;;-1.15;92.29
63927;BME280;50103;47.960;21.712;2022-12-18T18:00:18;102775.33;;;-1.17;92.44
63927;BME280;50103;47.960;21.712;2022-12-18T18:02:44;102773.58;;;-1.18;92.42
63927;BME280;50103;47.960;21.712;2022-12-18T18:05:12;102777.21;;;-1.18;92.90
63927;BME280;50103;47.960;21.712;2022-12-18T18:07:38;102772.52;;;-1.18;93.10
63927;BME280;50103;47.960;21.712;2022-12-18T18:10:05;102773.92;;;-1.18;93.18
63927;BME280;50103;47.960;21.712;2022-12-18T18:12:32;102771.47;;;-1.19;93.13
63927;BME280;50103;47.960;21.712;2022-12-18T18:15:17;102769.91;;;-1.19;93.18
63927;BME280;50103;47.960;21.712;2022-12-18T18:17:43;102779.79;;;-1.20;92.99
63927;BME280;50103;47.960;21.712;2022-12-18T18:20:09;102781.84;;;-1.22;93.30
63927;BME280;50103;47.960;21.712;2022-12-18T18:22:38;102780.08;;;-1.24;93.41
63927;BME280;50103;47.960;21.712;2022-12-18T18:25:07;102780.08;;;-1.25;93.61
63927;BME280;50103;47.960;21.712;2022-12-18T18:27:33;102791.72;;;-1.25;93.68
63927;BME280;50103;47.960;21.712;2022-12-18T18:29:59;102784.24;;;-1.25;93.77
63927;BME280;50103;47.960;21.712;2022-12-18T18:32:24;102781.28;;;-1.26;93.76
63927;BME280;50103;47.960;21.712;2022-12-18T18:34:49;102788.04;;;-1.28;93.62
63927;BME280;50103;47.960;21.712;2022-12-18T18:37:15;102790.98;;;-1.30;93.71
63927;BME280;50103;47.960;21.712;2022-12-18T18:39:40;102787.14;;;-1.32;94.11
63927;BME280;50103;47.960;21.712;2022-12-18T18:42:06;102788.69;;;-1.33;94.24
63927;BME280;50103;47.960;21.712;2022-12-18T18:44:32;102786.06;;;-1.35;94.10
63927;BME280;50103;47.960;21.712;2022-12-18T18:46:58;102785.15;;;-1.38;94.20
63927;BME280;50103;47.960;21.712;2022-12-18T18:49:25;102774.98;;;-1.44;93.30
63927;BME280;50103;47.960;21.712;2022-12-18T18:51:54;102774.61;;;-1.48;93.54
63927;BME280;50103;47.960;21.712;2022-12-18T18:54:20;102775.27;;;-1.50;93.81
63927;BME280;50103;47.960;21.712;2022-12-18T18:56:48;102776.25;;;-1.55;93.68
63927;BME280;50103;47.960;21.712;2022-12-18T18:59:13;102773.23;;;-1.60;93.49
63927;BME280;50103;47.960;21.712;2022-12-18T19:01:40;102778.58;;;-1.65;93.41
63927;BME280;50103;47.960;21.712;2022-12-18T19:04:06;102775.39;;;-1.68;93.80
63927;BME280;50103;47.960;21.712;2022-12-18T19:06:31;102771.70;;;-1.71;92.93
63927;BME280;50103;47.960;21.712;2022-12-18T19:08:57;102771.27;;;-1.77;93.18
63927;BME280;50103;47.960;21.712;2022-12-18T19:11:24;102772.95;;;-1.83;92.98
63927;BME280;50103;47.960;21.712;2022-12-18T19:14:11;102772.33;;;-1.89;93.11
63927;BME280;50103;47.960;21.712;2022-12-18T19:16:37;102773.31;;;-1.93;93.18
63927;BME280;50103;47.960;21.712;2022-12-18T19:19:03;102769.64;;;-1.96;93.17
63927;BME280;50103;47.960;21.712;2022-12-18T19:21:29;102769.77;;;-1.99;92.90
63927;BME280;50103;47.960;21.712;2022-12-18T19:23:56;102770.45;;;-2.00;93.46
63927;BME280;50103;47.960;21.712;2022-12-18T19:26:23;102773.91;;;-2.01;93.56
63927;BME280;50103;47.960;21.712;2022-12-18T19:28:48;102781.52;;;-2.02;93.09
63927;BME280;50103;47.960;21.712;2022-12-18T19:31:16;102786.15;;;-2.05;92.61
63927;BME280;50103;47.960;21.712;2022-12-18T19:33:44;102789.57;;;-2.09;93.18
63927;BME280;50103;47.960;21.712;2022-12-18T19:36:16;102789.70;;;-2.14;92.32
63927;BME280;50103;47.960;21.712;2022-12-18T19:38:43;102792.80;;;-2.15;92.96
63927;BME280;50103;47.960;21.712;2022-12-18T19:41:09;102796.09;;;-2.16;93.36
63927;BME280;50103;47.960;21.712;2022-12-18T19:43:38;102793.43;;;-2.19;93.47
63927;BME280;50103;47.960;21.712;2022-12-18T19:46:05;102797.73;;;-2.21;93.50
63927;BME280;50103;47.960;21.712;2022-12-18T19:48:32;102800.70;;;-2.20;93.71
63927;BME280;50103;47.960;21.712;2022-12-18T19:51:24;102800.00;;;-2.20;93.18
63927;BME280;50103;47.960;21.712;2022-12-18T19:53:49;102807.91;;;-2.24;92.53
63927;BME280;50103;47.960;21.712;2022-12-18T19:56:17;102807.19;;;-2.26;92.46
63927;BME280;50103;47.960;21.712;2022-12-18T19:58:43;102806.12;;;-2.29;92.80
